createdAt,value
2023-05-20T00:01:27.362Z,14.38
2023-05-20T00:03:54.198Z,14.42
2023-05-20T00:06:20.987Z,14.46
2023-05-20T00:08:47.690Z,14.74
2023-05-20T00:11:15.188Z,14.95
2023-05-20T00:13:41.873Z,14.95
2023-05-20T00:16:08.804Z,14.66
2023-05-20T00:18:35.808Z,14.88
2023-05-20T00:21:02.478Z,14.96
2023-05-20T00:23:29.187Z,14.45
2023-05-20T00:25:57.001Z,14.79
2023-05-20T00:28:24.532Z,14.88
2023-05-20T00:30:51.203Z,14.96
2023-05-20T00:33:17.911Z,14.56
2023-05-20T00:35:44.741Z,14.65
2023-05-20T00:38:11.442Z,15.00
2023-05-20T00:40:38.142Z,15.16
2023-05-20T00:43:04.951Z,14.76
2023-05-20T00:45:32.809Z,14.95
2023-05-20T00:47:59.875Z,14.66
2023-05-20T00:50:27.689Z,14.57
2023-05-20T00:52:55.320Z,14.64
2023-05-20T00:55:22.755Z,14.96
2023-05-20T00:57:50.561Z,14.88
2023-05-20T01:00:17.353Z,15.18
2023-05-20T01:02:44.625Z,15.05
2023-05-20T01:05:11.392Z,15.50
2023-05-20T01:07:38.524Z,15.08
2023-05-20T01:10:05.924Z,14.98
2023-05-20T01:12:39.932Z,15.18
2023-05-20T01:15:11.797Z,15.01
2023-05-20T01:17:44.707Z,15.42
2023-05-20T01:20:11.936Z,14.83
2023-05-20T01:22:39.601Z,15.41
2023-05-20T01:25:06.486Z,15.55
2023-05-20T01:27:33.618Z,16.12
2023-05-20T01:30:00.342Z,15.65
2023-05-20T01:32:38.982Z,15.19
2023-05-20T01:35:07.950Z,15.15
2023-05-20T01:37:39.739Z,15.81
2023-05-20T01:40:14.965Z,15.32
2023-05-20T01:42:43.955Z,15.07
2023-05-20T01:45:11.113Z,14.93
2023-05-20T01:47:37.907Z,15.39
2023-05-20T01:50:05.197Z,14.89
2023-05-20T01:52:31.923Z,14.71
2023-05-20T01:54:58.671Z,14.77
2023-05-20T01:57:25.390Z,14.58
2023-05-20T01:59:52.076Z,14.71
2023-05-20T02:02:18.738Z,15.04
2023-05-20T02:04:46.910Z,14.77
2023-05-20T02:07:14.783Z,14.60
2023-05-20T02:09:41.621Z,14.19
2023-05-20T02:12:09.248Z,15.00
2023-05-20T02:14:35.958Z,14.67
2023-05-20T02:17:03.452Z,13.75
2023-05-20T02:19:30.334Z,13.95
2023-05-20T02:21:57.228Z,14.03
2023-05-20T02:24:24.365Z,14.59
2023-05-20T02:26:51.141Z,14.85
2023-05-20T02:29:17.865Z,15.24
2023-05-20T02:31:44.900Z,14.73
2023-05-20T02:34:11.645Z,14.90
2023-05-20T02:36:38.385Z,15.79
2023-05-20T02:39:05.324Z,15.18
2023-05-20T02:41:32.016Z,15.05
2023-05-20T02:43:58.684Z,15.17
2023-05-20T02:46:25.656Z,14.44
2023-05-20T02:48:52.396Z,14.38
2023-05-20T02:51:19.058Z,14.12
2023-05-20T02:53:46.508Z,14.81
2023-05-20T02:56:13.158Z,13.95
2023-05-20T02:58:40.177Z,13.58
2023-05-20T03:01:06.873Z,13.37
2023-05-20T03:03:33.680Z,13.71
2023-05-20T03:06:00.382Z,12.96
2023-05-20T03:08:29.576Z,14.08
2023-05-20T03:10:56.290Z,13.60
2023-05-20T03:13:22.969Z,13.73
2023-05-20T03:15:50.211Z,13.89
2023-05-20T03:18:16.982Z,13.82
2023-05-20T03:20:43.784Z,13.80
2023-05-20T03:23:10.632Z,14.32
2023-05-20T03:25:39.540Z,14.43
2023-05-20T03:28:06.434Z,14.04
2023-05-20T03:30:33.122Z,13.58
2023-05-20T03:33:00.164Z,13.66
2023-05-20T03:35:26.895Z,13.67
2023-05-20T03:37:53.589Z,13.38
2023-05-20T03:40:20.913Z,13.10
2023-05-20T03:42:47.647Z,13.36
2023-05-20T03:45:14.537Z,13.80
2023-05-20T03:47:41.303Z,14.10
2023-05-20T03:50:08.271Z,13.35
2023-05-20T03:52:35.221Z,13.86
2023-05-20T03:55:02.154Z,13.79
2023-05-20T03:57:28.842Z,13.53
2023-05-20T03:59:55.538Z,14.32
2023-05-20T04:02:22.458Z,14.58
2023-05-20T04:04:49.173Z,13.98
2023-05-20T04:07:15.872Z,14.13
2023-05-20T04:09:42.616Z,14.03
2023-05-20T04:12:09.296Z,14.17
2023-05-20T04:14:35.984Z,14.49
2023-05-20T04:17:04.108Z,14.34
2023-05-20T04:19:30.843Z,14.08
2023-05-20T04:21:57.550Z,13.79
2023-05-20T04:24:24.301Z,14.36
2023-05-20T04:26:52.037Z,14.18
2023-05-20T04:29:19.233Z,14.15
2023-05-20T04:31:49.051Z,13.63
2023-05-20T04:34:15.796Z,14.31
2023-05-20T04:36:42.487Z,13.92
2023-05-20T04:39:09.176Z,13.98
2023-05-20T04:41:35.857Z,13.64
2023-05-20T04:44:02.782Z,13.28
2023-05-20T04:46:29.521Z,13.57
2023-05-20T04:48:56.225Z,13.51
2023-05-20T04:51:22.958Z,13.36
2023-05-20T04:53:49.626Z,13.62
2023-05-20T04:56:16.401Z,13.67
2023-05-20T04:58:43.065Z,13.54
2023-05-20T05:01:09.792Z,14.00
2023-05-20T05:03:36.983Z,13.81
2023-05-20T05:06:04.421Z,13.75
2023-05-20T05:08:33.398Z,13.92
2023-05-20T05:11:00.109Z,13.29
2023-05-20T05:13:26.851Z,13.77
2023-05-20T05:16:03.144Z,13.67
2023-05-20T05:18:30.108Z,14.09
2023-05-20T05:21:04.567Z,13.65
2023-05-20T05:23:31.367Z,13.74
2023-05-20T05:25:59.298Z,13.47
2023-05-20T05:28:26.595Z,13.77
2023-05-20T05:30:56.482Z,13.75
2023-05-20T05:33:24.263Z,13.22
2023-05-20T05:35:51.264Z,13.59
2023-05-20T05:38:18.216Z,13.46
2023-05-20T05:40:44.901Z,13.56
2023-05-20T05:43:11.577Z,13.59
2023-05-20T05:45:39.048Z,13.58
2023-05-20T05:48:05.815Z,13.70
2023-05-20T05:50:32.644Z,13.57
2023-05-20T05:52:59.471Z,13.34
2023-05-20T05:55:26.229Z,13.29
2023-05-20T05:57:52.927Z,13.60
2023-05-20T06:00:19.611Z,14.03
2023-05-20T06:02:47.690Z,12.82
2023-05-20T06:05:14.599Z,13.22
2023-05-20T06:07:41.300Z,13.35
2023-05-20T06:10:08.531Z,12.82
2023-05-20T06:12:36.261Z,12.83
2023-05-20T06:15:03.304Z,13.02
2023-05-20T06:17:30.094Z,12.67
2023-05-20T06:19:57.017Z,13.06
2023-05-20T06:22:23.851Z,12.47
2023-05-20T06:24:50.537Z,11.90
2023-05-20T06:27:17.182Z,11.65
2023-05-20T06:29:44.044Z,11.52
2023-05-20T06:32:10.793Z,11.58
2023-05-20T06:34:37.894Z,11.49
2023-05-20T06:37:04.846Z,11.74
2023-05-20T06:39:31.583Z,11.32
2023-05-20T06:41:58.400Z,11.73
2023-05-20T06:44:25.073Z,11.62
2023-05-20T06:46:51.882Z,12.10
2023-05-20T06:49:18.891Z,11.80
2023-05-20T06:51:45.572Z,11.80
2023-05-20T06:54:12.284Z,10.76
2023-05-20T06:56:38.995Z,9.98
2023-05-20T06:59:05.662Z,10.09
2023-05-20T07:01:32.582Z,9.75
2023-05-20T07:03:59.325Z,10.16
2023-05-20T07:06:26.082Z,9.86
2023-05-20T07:08:53.082Z,10.05
2023-05-20T07:11:19.775Z,9.16
2023-05-20T07:13:46.470Z,9.33
2023-05-20T07:16:13.251Z,10.01
2023-05-20T07:18:40.001Z,9.90
2023-05-20T07:21:06.927Z,9.96
2023-05-20T07:23:33.607Z,9.50
2023-05-20T07:26:00.308Z,9.93
2023-05-20T07:28:27.169Z,10.76
2023-05-20T07:30:56.098Z,10.91
2023-05-20T07:33:23.138Z,9.88
2023-05-20T07:35:49.999Z,9.58
2023-05-20T07:38:17.020Z,9.24
2023-05-20T07:40:43.673Z,9.29
2023-05-20T07:43:11.383Z,9.50
2023-05-20T07:45:41.140Z,9.79
2023-05-20T07:48:08.122Z,10.54
2023-05-20T07:50:35.073Z,11.70
2023-05-20T07:53:01.975Z,12.33
2023-05-20T07:55:28.682Z,12.68
2023-05-20T07:57:58.367Z,15.73
2023-05-20T08:00:25.287Z,15.45
2023-05-20T08:02:52.142Z,13.95
2023-05-20T08:05:21.997Z,13.27
2023-05-20T08:07:48.929Z,13.35
2023-05-20T08:10:15.744Z,12.74
2023-05-20T08:12:42.419Z,12.63
2023-05-20T08:15:09.596Z,12.72
2023-05-20T08:17:36.379Z,12.81
2023-05-20T08:20:03.132Z,11.85
2023-05-20T08:22:30.068Z,12.00
2023-05-20T08:24:56.776Z,10.43
2023-05-20T08:27:23.464Z,9.39
2023-05-20T08:29:50.341Z,9.29
2023-05-20T08:32:17.072Z,9.32
2023-05-20T08:34:46.458Z,9.51
2023-05-20T08:37:13.200Z,9.39
2023-05-20T08:39:39.911Z,8.79
2023-05-20T08:42:06.809Z,9.02
2023-05-20T08:44:36.002Z,9.00
2023-05-20T08:47:05.855Z,8.68
2023-05-20T08:49:32.769Z,8.45
2023-05-20T08:52:01.215Z,8.90
2023-05-20T08:54:46.501Z,8.91
2023-05-20T08:57:13.785Z,8.74
2023-05-20T08:59:46.013Z,11.84
2023-05-20T09:02:14.335Z,12.82
2023-05-20T09:04:41.029Z,12.96
2023-05-20T09:07:07.757Z,12.68
2023-05-20T09:09:35.531Z,13.01
2023-05-20T09:12:03.374Z,13.59
2023-05-20T09:14:31.058Z,13.66
2023-05-20T09:16:58.266Z,13.44
2023-05-20T09:19:26.034Z,13.24
2023-05-20T09:21:54.110Z,12.95
2023-05-20T09:24:25.181Z,12.47
2023-05-20T09:26:52.627Z,11.54
2023-05-20T09:32:05.085Z,9.37
2023-05-20T09:34:31.927Z,8.89
2023-05-20T09:37:00.265Z,9.80
2023-05-20T09:39:34.063Z,12.34
2023-05-20T09:42:20.610Z,11.18
2023-05-20T09:44:50.407Z,11.17
2023-05-20T09:47:19.728Z,12.20
2023-05-20T09:49:46.920Z,12.69
2023-05-20T09:52:15.682Z,12.72
2023-05-20T09:54:44.823Z,12.45
2023-05-20T09:57:12.728Z,12.29
2023-05-20T09:59:40.879Z,11.54
2023-05-20T10:02:09.036Z,12.15
2023-05-20T10:04:44.188Z,11.52
2023-05-20T10:07:46.653Z,11.82
2023-05-20T10:10:44.124Z,11.80
2023-05-20T10:13:38.459Z,11.98
2023-05-20T10:16:17.752Z,12.60
2023-05-20T10:19:16.847Z,12.24
2023-05-20T10:21:43.698Z,12.16
2023-05-20T10:24:11.319Z,12.02
2023-05-20T10:26:42.305Z,11.87
2023-05-20T10:29:18.141Z,11.94
2023-05-20T10:31:49.456Z,11.54
2023-05-20T10:34:17.682Z,10.10
2023-05-20T10:36:56.576Z,9.37
2023-05-20T10:39:31.019Z,8.46
2023-05-20T10:42:11.995Z,8.95
2023-05-20T10:44:46.670Z,8.20
2023-05-20T10:47:24.826Z,8.45
2023-05-20T10:49:55.499Z,8.62
2023-05-20T10:52:23.732Z,8.66
2023-05-20T10:54:58.381Z,8.38
2023-05-20T10:57:28.328Z,8.15
2023-05-20T10:59:58.582Z,8.90
2023-05-20T11:02:27.162Z,8.43
2023-05-20T11:04:56.372Z,8.47
2023-05-20T11:07:30.515Z,9.32
2023-05-20T11:09:58.492Z,9.12
2023-05-20T11:12:27.188Z,9.14
2023-05-20T11:14:55.000Z,9.68
2023-05-20T11:17:21.955Z,9.53
2023-05-20T11:19:49.147Z,9.58
2023-05-20T11:22:16.138Z,9.33
2023-05-20T11:24:42.868Z,8.94
2023-05-20T11:27:09.784Z,8.80
2023-05-20T11:29:37.136Z,8.56
2023-05-20T11:32:04.158Z,8.41
2023-05-20T11:34:39.497Z,8.95
2023-05-20T11:37:11.042Z,8.90
2023-05-20T11:39:38.177Z,9.26
2023-05-20T11:42:05.012Z,9.24
2023-05-20T11:44:31.762Z,8.94
2023-05-20T11:47:02.960Z,8.84
2023-05-20T11:49:29.709Z,8.45
2023-05-20T11:51:57.264Z,9.07
2023-05-20T11:54:24.611Z,8.90
2023-05-20T11:56:51.412Z,8.88
2023-05-20T11:59:18.222Z,8.43
2023-05-20T12:01:44.886Z,8.88
2023-05-20T12:04:12.708Z,9.16
2023-05-20T12:06:39.907Z,9.12
2023-05-20T12:09:07.661Z,9.16
2023-05-20T12:11:35.998Z,9.94
2023-05-20T12:14:04.239Z,10.56
2023-05-20T12:16:34.507Z,10.27
2023-05-20T12:19:01.689Z,10.80
2023-05-20T12:21:31.720Z,10.39
2023-05-20T12:24:01.442Z,10.84
2023-05-20T12:26:29.480Z,10.95
2023-05-20T12:28:56.966Z,9.82
2023-05-20T12:31:25.216Z,10.28
2023-05-20T12:33:51.975Z,9.57
2023-05-20T12:36:18.714Z,10.76
2023-05-20T12:38:45.469Z,10.57
2023-05-20T12:41:12.125Z,10.95
2023-05-20T12:43:38.916Z,11.08
2023-05-20T12:46:05.943Z,11.13
2023-05-20T12:48:32.825Z,11.13
2023-05-20T12:51:00.223Z,11.00
2023-05-20T12:53:26.908Z,11.51
2023-05-20T12:55:53.598Z,11.59
2023-05-20T12:58:20.601Z,12.06
2023-05-20T13:00:47.339Z,12.55
2023-05-20T13:03:14.126Z,12.36
2023-05-20T13:05:40.905Z,12.60
2023-05-20T13:08:07.636Z,12.63
2023-05-20T13:10:34.898Z,12.76
2023-05-20T13:13:01.819Z,12.69
2023-05-20T13:15:28.479Z,12.96
2023-05-20T13:17:55.582Z,12.42
2023-05-20T13:20:22.387Z,12.90
2023-05-20T13:22:49.086Z,12.90
2023-05-20T13:25:15.905Z,13.78
2023-05-20T13:27:42.590Z,12.77
2023-05-20T13:30:09.500Z,12.92
2023-05-20T13:32:36.186Z,13.21
2023-05-20T13:35:02.938Z,13.12
2023-05-20T13:37:30.002Z,13.06
2023-05-20T13:39:56.698Z,13.11
2023-05-20T13:42:23.410Z,13.03
2023-05-20T13:44:50.237Z,13.45
2023-05-20T13:47:16.967Z,12.86
2023-05-20T13:49:43.630Z,13.07
2023-05-20T13:52:10.321Z,12.68
2023-05-20T13:54:37.092Z,12.58
2023-05-20T13:57:04.172Z,12.55
2023-05-20T13:59:31.188Z,12.65
2023-05-20T14:01:57.944Z,12.49
2023-05-20T14:04:25.635Z,12.84
2023-05-20T14:06:52.304Z,12.62
2023-05-20T14:12:02.089Z,13.31
2023-05-20T14:14:28.827Z,13.30
2023-05-20T14:16:55.554Z,12.54
2023-05-20T14:19:22.317Z,12.30
2023-05-20T14:21:49.118Z,12.24
2023-05-20T14:24:15.811Z,12.75
2023-05-20T14:26:42.457Z,12.73
2023-05-20T14:29:09.113Z,13.15
2023-05-20T14:31:36.002Z,12.34
2023-05-20T14:34:02.774Z,13.24
2023-05-20T14:36:29.547Z,12.17
2023-05-20T14:38:56.222Z,12.35
2023-05-20T14:41:25.584Z,12.94
2023-05-20T14:43:52.301Z,12.52
2023-05-20T14:46:19.021Z,12.26
2023-05-20T14:48:45.908Z,12.15
2023-05-20T14:51:13.383Z,12.96
2023-05-20T14:53:40.471Z,12.55
2023-05-20T14:56:07.335Z,12.13
2023-05-20T14:58:35.300Z,11.92
2023-05-20T15:01:02.067Z,12.29
2023-05-20T15:03:29.027Z,12.28
2023-05-20T15:05:55.987Z,13.25
2023-05-20T15:08:22.701Z,12.70
2023-05-20T15:10:49.400Z,13.36
2023-05-20T15:13:16.101Z,13.19
2023-05-20T15:15:42.972Z,13.17
2023-05-20T15:18:09.765Z,15.26
2023-05-20T15:20:36.431Z,16.60
2023-05-20T15:23:04.223Z,15.66
2023-05-20T15:25:30.959Z,15.23
2023-05-20T15:27:57.700Z,14.66
2023-05-20T15:30:24.415Z,14.22
2023-05-20T15:32:53.472Z,13.31
2023-05-20T15:35:20.290Z,12.79
2023-05-20T15:37:47.331Z,13.34
2023-05-20T15:40:16.086Z,14.47
2023-05-20T15:42:43.182Z,14.55
2023-05-20T15:45:10.322Z,13.90
2023-05-20T15:47:39.211Z,13.92
2023-05-20T15:50:07.701Z,14.26
2023-05-20T15:52:35.896Z,13.13
2023-05-20T15:55:02.989Z,13.44
2023-05-20T15:57:29.825Z,13.48
2023-05-20T15:59:56.868Z,13.01
2023-05-20T16:02:23.878Z,13.35
2023-05-20T16:04:50.783Z,14.11
2023-05-20T16:07:17.474Z,14.31
2023-05-20T16:09:44.143Z,13.40
2023-05-20T16:12:10.802Z,14.40
2023-05-20T16:14:37.744Z,14.70
2023-05-20T16:17:04.575Z,15.80
2023-05-20T16:19:34.276Z,14.79
2023-05-20T16:22:00.989Z,12.83
2023-05-20T16:24:27.672Z,12.29
2023-05-20T16:26:54.591Z,12.55
2023-05-20T16:29:21.409Z,13.41
2023-05-20T16:31:48.286Z,12.80
2023-05-20T16:34:15.113Z,12.28
2023-05-20T16:36:41.800Z,12.75
2023-05-20T16:39:08.517Z,14.40
2023-05-20T16:41:35.225Z,14.72
2023-05-20T16:44:02.100Z,13.36
2023-05-20T16:46:28.821Z,13.26
2023-05-20T16:48:55.517Z,13.00
2023-05-20T16:51:25.191Z,13.54
2023-05-20T16:53:52.105Z,13.82
2023-05-20T16:56:20.489Z,13.43
2023-05-20T16:58:47.553Z,13.93
2023-05-20T17:01:14.335Z,13.80
2023-05-20T17:03:41.090Z,14.85
2023-05-20T17:06:07.880Z,15.28
2023-05-20T17:08:34.576Z,14.62
2023-05-20T17:11:01.836Z,14.09
2023-05-20T17:13:28.533Z,14.25
2023-05-20T17:15:58.101Z,15.43
2023-05-20T17:18:24.787Z,13.83
2023-05-20T17:20:51.462Z,13.64
2023-05-20T17:23:18.199Z,14.67
2023-05-20T17:25:45.190Z,15.12
2023-05-20T17:28:11.997Z,15.78
2023-05-20T17:30:38.672Z,15.37
2023-05-20T17:33:08.405Z,15.60
2023-05-20T17:35:35.152Z,14.88
2023-05-20T17:38:01.858Z,14.46
2023-05-20T17:40:28.538Z,15.09
2023-05-20T17:42:55.286Z,15.56
2023-05-20T17:45:24.441Z,16.14
2023-05-20T17:47:51.230Z,15.94
2023-05-20T17:50:17.971Z,15.44
2023-05-20T17:52:44.713Z,14.96
2023-05-20T17:55:11.426Z,14.42
2023-05-20T17:57:38.235Z,14.59
2023-05-20T18:00:05.871Z,14.11
2023-05-20T18:02:32.669Z,13.08
2023-05-20T18:04:59.434Z,13.51
2023-05-20T18:07:26.120Z,13.19
2023-05-20T18:09:52.778Z,13.59
2023-05-20T18:12:19.559Z,13.73
2023-05-20T18:14:46.345Z,14.48
2023-05-20T18:17:13.219Z,15.17
2023-05-20T18:19:39.878Z,15.46
2023-05-20T18:22:06.635Z,17.67
2023-05-20T18:24:39.311Z,15.68
2023-05-20T18:27:06.075Z,15.41
2023-05-20T18:29:33.064Z,14.88
2023-05-20T18:32:00.076Z,16.23
2023-05-20T18:34:27.122Z,14.77
2023-05-20T18:36:54.843Z,15.19
2023-05-20T18:39:23.289Z,15.23
2023-05-20T18:41:50.388Z,14.93
2023-05-20T18:44:18.570Z,14.48
2023-05-20T18:46:46.237Z,15.47
2023-05-20T18:49:13.394Z,15.31
2023-05-20T18:51:41.193Z,14.40
2023-05-20T18:54:08.665Z,14.85
2023-05-20T18:56:35.722Z,18.46
2023-05-20T18:59:02.617Z,18.14
2023-05-20T19:01:29.636Z,16.72
2023-05-20T19:03:56.526Z,15.92
2023-05-20T19:06:23.313Z,15.86
2023-05-20T19:08:49.993Z,15.40
2023-05-20T19:11:16.826Z,15.30
2023-05-20T19:13:43.554Z,14.58
2023-05-20T19:16:10.498Z,14.83
2023-05-20T19:18:37.315Z,14.93
2023-05-20T19:21:04.033Z,14.65
2023-05-20T19:23:30.770Z,15.42
2023-05-20T19:25:57.539Z,15.02
2023-05-20T19:28:24.356Z,15.34
2023-05-20T19:30:51.177Z,14.87
2023-05-20T19:33:18.011Z,15.34
2023-05-20T19:35:47.931Z,14.83
2023-05-20T19:38:14.701Z,16.46
2023-05-20T19:40:41.516Z,16.97
2023-05-20T19:43:08.225Z,16.90
2023-05-20T19:45:35.093Z,17.48
2023-05-20T19:48:02.960Z,19.67
2023-05-20T19:50:29.821Z,18.12
2023-05-20T19:52:56.501Z,18.49
2023-05-20T19:55:23.315Z,19.37
2023-05-20T19:57:50.171Z,18.55
2023-05-20T20:00:19.705Z,18.33
2023-05-20T20:02:46.767Z,18.01
2023-05-20T20:05:14.210Z,17.50
2023-05-20T20:07:41.000Z,17.27
2023-05-20T20:10:08.512Z,16.45
2023-05-20T20:12:35.246Z,16.84
2023-05-20T20:15:02.164Z,16.89
2023-05-20T20:17:29.019Z,16.90
2023-05-20T20:19:55.769Z,16.91
2023-05-20T20:22:22.488Z,16.71
2023-05-20T20:24:49.229Z,17.06
2023-05-20T20:27:16.005Z,16.74
2023-05-20T20:29:42.797Z,16.12
2023-05-20T20:32:09.541Z,15.60
2023-05-20T20:34:36.294Z,15.40
2023-05-20T20:37:03.008Z,15.67
2023-05-20T20:39:29.727Z,15.44
2023-05-20T20:41:56.456Z,15.54
2023-05-20T20:44:23.200Z,15.90
2023-05-20T20:46:50.364Z,14.72
2023-05-20T20:49:18.254Z,14.77
2023-05-20T20:51:46.183Z,14.70
2023-05-20T20:54:12.919Z,14.86
2023-05-20T20:56:39.903Z,14.99
2023-05-20T20:59:07.382Z,16.41
2023-05-20T21:01:34.412Z,15.73
2023-05-20T21:04:04.330Z,16.74
2023-05-20T21:06:31.523Z,15.86
2023-05-20T21:08:58.348Z,15.78
2023-05-20T21:11:25.007Z,15.57
2023-05-20T21:13:52.233Z,16.98
2023-05-20T21:16:19.529Z,16.89
2023-05-20T21:18:50.614Z,17.36
2023-05-20T21:21:17.346Z,16.28
2023-05-20T21:23:44.114Z,16.01
2023-05-20T21:26:10.776Z,16.73
2023-05-20T21:28:38.542Z,17.09
2023-05-20T21:31:07.690Z,17.63
2023-05-20T21:33:38.583Z,17.21
2023-05-20T21:39:33.175Z,16.82
2023-05-20T21:41:59.830Z,16.36
2023-05-20T21:44:26.520Z,16.65
2023-05-20T21:46:53.507Z,15.99
2023-05-20T21:49:20.340Z,15.76
2023-05-20T21:51:47.026Z,16.25
2023-05-20T21:54:13.850Z,16.02
2023-05-20T21:56:40.594Z,15.96
2023-05-20T21:59:07.347Z,16.47
2023-05-20T22:01:34.062Z,16.47
2023-05-20T22:04:00.965Z,16.24
2023-05-20T22:06:27.752Z,15.94
2023-05-20T22:08:54.537Z,16.23
2023-05-20T22:11:21.215Z,15.95
2023-05-20T22:13:47.844Z,16.11
2023-05-20T22:16:15.012Z,15.48
2023-05-20T22:18:41.743Z,15.31
2023-05-20T22:21:08.481Z,15.44
2023-05-20T22:23:35.134Z,16.35
2023-05-20T22:26:02.024Z,16.58
2023-05-20T22:28:28.690Z,16.27
2023-05-20T22:30:55.454Z,16.42
2023-05-20T22:33:22.231Z,15.94
2023-05-20T22:35:48.874Z,15.71
2023-05-20T22:38:15.562Z,16.61
2023-05-20T22:40:42.226Z,16.16
2023-05-20T22:43:08.884Z,16.71
2023-05-20T22:45:35.799Z,17.23
2023-05-20T22:48:04.052Z,17.19
2023-05-20T22:50:30.839Z,16.95
2023-05-20T22:52:57.506Z,17.62
2023-05-20T22:55:27.343Z,16.94
2023-05-20T22:57:54.066Z,17.29
2023-05-20T23:00:20.878Z,17.17
2023-05-20T23:02:47.684Z,17.44
2023-05-20T23:05:14.541Z,17.34
2023-05-20T23:07:41.341Z,17.59
2023-05-20T23:10:08.294Z,17.73
2023-05-20T23:12:35.113Z,16.80
2023-05-20T23:15:02.075Z,16.89
2023-05-20T23:17:30.974Z,17.16
2023-05-20T23:19:58.068Z,16.93
2023-05-20T23:22:24.760Z,16.59
2023-05-20T23:24:51.446Z,16.98
2023-05-20T23:27:18.107Z,16.37
2023-05-20T23:29:44.796Z,17.16
2023-05-20T23:32:11.446Z,16.96
2023-05-20T23:34:38.087Z,18.22
2023-05-20T23:37:04.760Z,18.76
2023-05-20T23:39:31.507Z,18.11
2023-05-20T23:41:58.152Z,17.99
2023-05-20T23:44:24.794Z,18.20
2023-05-20T23:46:51.427Z,17.89
2023-05-20T23:49:18.101Z,17.87
2023-05-20T23:51:44.768Z,17.08
2023-05-20T23:54:11.907Z,16.05
2023-05-20T23:56:38.578Z,15.98
2023-05-20T23:59:05.282Z,15.57
